sensor_id;sensor_type;location;lat;lon;timestamp;temperature;humidity
49124;DHT22;48506;48.202;16.274;2023-07-28T00:01:39;21.60;73.80
49124;DHT22;48506;48.202;16.274;2023-07-28T00:04:05;21.60;74.10
49124;DHT22;48506;48.202;16.274;2023-07-28T00:06:33;21.60;74.00
49124;DHT22;48506;48.202;16.274;2023-07-28T00:08:59;21.60;74.20
49124;DHT22;48506;48.202;16.274;2023-07-28T00:11:25;21.60;74.10
49124;DHT22;48506;48.202;16.274;2023-07-28T00:13:51;21.60;74.40
49124;DHT22;48506;48.202;16.274;2023-07-28T00:16:16;21.60;74.60
49124;DHT22;48506;48.202;16.274;2023-07-28T00:18:42;21.60;74.30
49124;DHT22;48506;48.202;16.274;2023-07-28T00:21:08;21.60;74.10
49124;DHT22;48506;48.202;16.274;2023-07-28T00:23:34;21.50;74.10
49124;DHT22;48506;48.202;16.274;2023-07-28T00:26:00;21.50;74.50
49124;DHT22;48506;48.202;16.274;2023-07-28T00:28:26;21.60;74.40
49124;DHT22;48506;48.202;16.274;2023-07-28T00:30:52;21.60;74.70
49124;DHT22;48506;48.202;16.274;2023-07-28T00:33:18;21.60;74.50
49124;DHT22;48506;48.202;16.274;2023-07-28T00:35:44;21.60;74.80
49124;DHT22;48506;48.202;16.274;2023-07-28T00:38:10;21.70;74.80
49124;DHT22;48506;48.202;16.274;2023-07-28T00:40:36;21.70;75.00
49124;DHT22;48506;48.202;16.274;2023-07-28T00:43:02;21.70;74.90
49124;DHT22;48506;48.202;16.274;2023-07-28T00:45:29;21.70;75.50
49124;DHT22;48506;48.202;16.274;2023-07-28T00:47:57;21.70;75.70
49124;DHT22;48506;48.202;16.274;2023-07-28T00:50:24;21.70;75.40
49124;DHT22;48506;48.202;16.274;2023-07-28T00:52:51;21.60;75.20
49124;DHT22;48506;48.202;16.274;2023-07-28T00:55:17;21.60;75.60
49124;DHT22;48506;48.202;16.274;2023-07-28T00:57:43;21.60;75.70
49124;DHT22;48506;48.202;16.274;2023-07-28T01:00:10;21.60;75.90
49124;DHT22;48506;48.202;16.274;2023-07-28T01:02:36;21.60;75.90
49124;DHT22;48506;48.202;16.274;2023-07-28T01:05:03;21.60;76.50
49124;DHT22;48506;48.202;16.274;2023-07-28T01:10:14;21.70;76.80
49124;DHT22;48506;48.202;16.274;2023-07-28T01:12:42;21.70;76.80
49124;DHT22;48506;48.202;16.274;2023-07-28T01:15:09;21.70;76.80
49124;DHT22;48506;48.202;16.274;2023-07-28T01:17:35;21.70;76.80
49124;DHT22;48506;48.202;16.274;2023-07-28T01:20:02;21.70;77.00
49124;DHT22;48506;48.202;16.274;2023-07-28T01:28:13;21.60;77.70
49124;DHT22;48506;48.202;16.274;2023-07-28T01:30:41;21.70;78.10
49124;DHT22;48506;48.202;16.274;2023-07-28T01:33:08;21.70;78.30
49124;DHT22;48506;48.202;16.274;2023-07-28T01:35:36;21.60;78.30
49124;DHT22;48506;48.202;16.274;2023-07-28T01:38:04;21.60;78.60
49124;DHT22;48506;48.202;16.274;2023-07-28T01:40:30;21.50;78.60
49124;DHT22;48506;48.202;16.274;2023-07-28T01:42:56;21.50;79.00
49124;DHT22;48506;48.202;16.274;2023-07-28T01:45:22;21.50;79.40
49124;DHT22;48506;48.202;16.274;2023-07-28T01:47:48;21.50;79.70
49124;DHT22;48506;48.202;16.274;2023-07-28T01:50:14;21.50;79.90
49124;DHT22;48506;48.202;16.274;2023-07-28T01:52:40;21.50;80.40
49124;DHT22;48506;48.202;16.274;2023-07-28T01:55:06;21.60;81.00
49124;DHT22;48506;48.202;16.274;2023-07-28T01:57:33;21.50;81.40
49124;DHT22;48506;48.202;16.274;2023-07-28T02:00:00;21.50;81.50
49124;DHT22;48506;48.202;16.274;2023-07-28T02:02:26;21.50;82.30
49124;DHT22;48506;48.202;16.274;2023-07-28T02:04:52;21.50;82.10
49124;DHT22;48506;48.202;16.274;2023-07-28T02:07:17;21.50;82.00
49124;DHT22;48506;48.202;16.274;2023-07-28T02:09:44;21.50;82.80
49124;DHT22;48506;48.202;16.274;2023-07-28T02:12:09;21.50;82.50
49124;DHT22;48506;48.202;16.274;2023-07-28T02:14:36;21.40;82.80
49124;DHT22;48506;48.202;16.274;2023-07-28T02:17:02;21.40;82.90
49124;DHT22;48506;48.202;16.274;2023-07-28T02:19:28;21.40;82.70
49124;DHT22;48506;48.202;16.274;2023-07-28T02:21:54;21.40;83.40
49124;DHT22;48506;48.202;16.274;2023-07-28T02:24:19;21.30;83.20
49124;DHT22;48506;48.202;16.274;2023-07-28T02:26:45;21.30;83.30
49124;DHT22;48506;48.202;16.274;2023-07-28T02:29:11;21.30;83.60
49124;DHT22;48506;48.202;16.274;2023-07-28T02:31:37;21.30;84.60
49124;DHT22;48506;48.202;16.274;2023-07-28T02:34:03;21.20;84.40
49124;DHT22;48506;48.202;16.274;2023-07-28T02:36:29;21.30;84.00
49124;DHT22;48506;48.202;16.274;2023-07-28T02:38:55;21.20;84.20
49124;DHT22;48506;48.202;16.274;2023-07-28T02:41:21;21.20;84.60
49124;DHT22;48506;48.202;16.274;2023-07-28T02:43:46;21.20;85.50
49124;DHT22;48506;48.202;16.274;2023-07-28T02:46:12;21.10;85.50
49124;DHT22;48506;48.202;16.274;2023-07-28T02:48:38;21.10;85.30
49124;DHT22;48506;48.202;16.274;2023-07-28T02:51:04;21.10;85.30
49124;DHT22;48506;48.202;16.274;2023-07-28T02:53:30;21.10;85.40
49124;DHT22;48506;48.202;16.274;2023-07-28T02:55:56;21.10;85.80
49124;DHT22;48506;48.202;16.274;2023-07-28T02:58:23;21.10;86.10
49124;DHT22;48506;48.202;16.274;2023-07-28T03:00:51;21.00;86.40
49124;DHT22;48506;48.202;16.274;2023-07-28T03:03:17;21.00;86.20
49124;DHT22;48506;48.202;16.274;2023-07-28T03:05:43;21.00;86.00
49124;DHT22;48506;48.202;16.274;2023-07-28T03:08:09;21.00;86.00
49124;DHT22;48506;48.202;16.274;2023-07-28T03:10:35;21.00;86.60
49124;DHT22;48506;48.202;16.274;2023-07-28T03:13:01;20.90;86.60
49124;DHT22;48506;48.202;16.274;2023-07-28T03:15:28;20.90;87.00
49124;DHT22;48506;48.202;16.274;2023-07-28T03:17:54;20.90;86.90
49124;DHT22;48506;48.202;16.274;2023-07-28T03:20:20;20.90;86.90
49124;DHT22;48506;48.202;16.274;2023-07-28T03:22:46;20.90;87.40
49124;DHT22;48506;48.202;16.274;2023-07-28T03:25:12;20.80;87.30
49124;DHT22;48506;48.202;16.274;2023-07-28T03:27:39;20.80;87.80
49124;DHT22;48506;48.202;16.274;2023-07-28T03:30:05;20.80;87.90
49124;DHT22;48506;48.202;16.274;2023-07-28T03:32:32;20.80;88.00
49124;DHT22;48506;48.202;16.274;2023-07-28T03:34:58;20.80;88.30
49124;DHT22;48506;48.202;16.274;2023-07-28T03:37:24;20.70;88.50
49124;DHT22;48506;48.202;16.274;2023-07-28T03:39:50;20.70;88.60
49124;DHT22;48506;48.202;16.274;2023-07-28T03:42:16;20.70;89.00
49124;DHT22;48506;48.202;16.274;2023-07-28T03:44:42;20.70;89.00
49124;DHT22;48506;48.202;16.274;2023-07-28T03:47:08;20.70;89.50
49124;DHT22;48506;48.202;16.274;2023-07-28T03:49:34;20.70;89.10
49124;DHT22;48506;48.202;16.274;2023-07-28T03:52:00;20.70;89.10
49124;DHT22;48506;48.202;16.274;2023-07-28T03:54:26;20.70;89.40
49124;DHT22;48506;48.202;16.274;2023-07-28T03:56:53;20.70;89.80
49124;DHT22;48506;48.202;16.274;2023-07-28T03:59:19;20.70;90.00
49124;DHT22;48506;48.202;16.274;2023-07-28T04:01:45;20.70;89.90
49124;DHT22;48506;48.202;16.274;2023-07-28T04:04:11;20.80;90.00
49124;DHT22;48506;48.202;16.274;2023-07-28T04:09:12;20.70;90.50
49124;DHT22;48506;48.202;16.274;2023-07-28T04:11:39;20.70;90.50
49124;DHT22;48506;48.202;16.274;2023-07-28T04:14:05;20.70;90.40
49124;DHT22;48506;48.202;16.274;2023-07-28T04:16:31;20.70;90.40
49124;DHT22;48506;48.202;16.274;2023-07-28T04:18:57;20.80;90.30
49124;DHT22;48506;48.202;16.274;2023-07-28T04:21:24;20.80;90.40
49124;DHT22;48506;48.202;16.274;2023-07-28T04:23:50;20.80;90.30
49124;DHT22;48506;48.202;16.274;2023-07-28T04:26:17;20.80;90.40
49124;DHT22;48506;48.202;16.274;2023-07-28T04:28:45;20.80;90.50
49124;DHT22;48506;48.202;16.274;2023-07-28T04:31:12;20.80;90.40
49124;DHT22;48506;48.202;16.274;2023-07-28T04:33:42;20.90;90.60
49124;DHT22;48506;48.202;16.274;2023-07-28T04:36:08;20.90;90.40
49124;DHT22;48506;48.202;16.274;2023-07-28T04:38:34;20.80;90.30
49124;DHT22;48506;48.202;16.274;2023-07-28T04:41:00;20.80;90.40
49124;DHT22;48506;48.202;16.274;2023-07-28T04:43:26;20.80;90.40
49124;DHT22;48506;48.202;16.274;2023-07-28T04:45:52;20.80;90.40
49124;DHT22;48506;48.202;16.274;2023-07-28T04:48:18;20.70;90.50
49124;DHT22;48506;48.202;16.274;2023-07-28T04:50:44;20.70;90.40
49124;DHT22;48506;48.202;16.274;2023-07-28T04:53:10;20.80;90.50
49124;DHT22;48506;48.202;16.274;2023-07-28T04:55:36;20.80;90.70
49124;DHT22;48506;48.202;16.274;2023-07-28T04:58:03;20.80;90.50
49124;DHT22;48506;48.202;16.274;2023-07-28T05:00:29;20.80;90.40
49124;DHT22;48506;48.202;16.274;2023-07-28T05:02:55;20.80;90.70
49124;DHT22;48506;48.202;16.274;2023-07-28T05:05:21;20.80;90.60
49124;DHT22;48506;48.202;16.274;2023-07-28T05:07:47;20.80;90.70
49124;DHT22;48506;48.202;16.274;2023-07-28T05:10:13;20.90;90.80
49124;DHT22;48506;48.202;16.274;2023-07-28T05:12:39;20.90;90.90
49124;DHT22;48506;48.202;16.274;2023-07-28T05:15:05;20.90;90.90
49124;DHT22;48506;48.202;16.274;2023-07-28T05:17:37;21.00;91.10
49124;DHT22;48506;48.202;16.274;2023-07-28T05:20:03;21.00;91.00
49124;DHT22;48506;48.202;16.274;2023-07-28T05:22:29;21.00;91.00
49124;DHT22;48506;48.202;16.274;2023-07-28T05:24:55;21.00;91.20
49124;DHT22;48506;48.202;16.274;2023-07-28T05:27:21;21.00;91.40
49124;DHT22;48506;48.202;16.274;2023-07-28T05:29:47;21.10;91.10
49124;DHT22;48506;48.202;16.274;2023-07-28T05:32:13;21.00;91.20
49124;DHT22;48506;48.202;16.274;2023-07-28T05:34:42;21.00;91.30
49124;DHT22;48506;48.202;16.274;2023-07-28T05:37:09;21.10;91.30
49124;DHT22;48506;48.202;16.274;2023-07-28T05:39:35;21.10;91.30
49124;DHT22;48506;48.202;16.274;2023-07-28T05:42:02;21.10;91.00
49124;DHT22;48506;48.202;16.274;2023-07-28T05:44:28;21.20;91.20
49124;DHT22;48506;48.202;16.274;2023-07-28T05:46:54;21.20;91.00
49124;DHT22;48506;48.202;16.274;2023-07-28T05:49:20;21.20;91.10
49124;DHT22;48506;48.202;16.274;2023-07-28T05:51:46;21.30;91.10
49124;DHT22;48506;48.202;16.274;2023-07-28T05:54:13;21.30;91.20
49124;DHT22;48506;48.202;16.274;2023-07-28T05:56:41;21.40;91.00
49124;DHT22;48506;48.202;16.274;2023-07-28T05:59:07;21.40;90.80
49124;DHT22;48506;48.202;16.274;2023-07-28T06:01:33;21.40;91.10
49124;DHT22;48506;48.202;16.274;2023-07-28T06:04:00;21.50;91.10
49124;DHT22;48506;48.202;16.274;2023-07-28T06:06:27;21.60;90.80
49124;DHT22;48506;48.202;16.274;2023-07-28T06:08:53;21.70;90.70
49124;DHT22;48506;48.202;16.274;2023-07-28T06:11:20;21.80;90.60
49124;DHT22;48506;48.202;16.274;2023-07-28T06:13:46;21.80;90.40
49124;DHT22;48506;48.202;16.274;2023-07-28T06:16:13;21.90;90.20
49124;DHT22;48506;48.202;16.274;2023-07-28T06:18:39;21.90;90.10
49124;DHT22;48506;48.202;16.274;2023-07-28T06:21:05;21.90;90.20
49124;DHT22;48506;48.202;16.274;2023-07-28T06:23:31;21.90;90.00
49124;DHT22;48506;48.202;16.274;2023-07-28T06:25:57;21.90;90.20
49124;DHT22;48506;48.202;16.274;2023-07-28T06:28:23;22.00;89.50
49124;DHT22;48506;48.202;16.274;2023-07-28T06:30:56;22.00;89.60
49124;DHT22;48506;48.202;16.274;2023-07-28T06:33:24;22.10;89.20
49124;DHT22;48506;48.202;16.274;2023-07-28T06:35:51;22.10;88.90
49124;DHT22;48506;48.202;16.274;2023-07-28T06:38:18;22.20;88.90
49124;DHT22;48506;48.202;16.274;2023-07-28T06:40:44;22.40;88.50
49124;DHT22;48506;48.202;16.274;2023-07-28T06:43:10;22.60;88.40
49124;DHT22;48506;48.202;16.274;2023-07-28T06:45:36;22.90;86.40
49124;DHT22;48506;48.202;16.274;2023-07-28T06:48:03;23.00;85.00
49124;DHT22;48506;48.202;16.274;2023-07-28T06:50:29;23.10;84.00
49124;DHT22;48506;48.202;16.274;2023-07-28T06:52:55;23.40;84.60
49124;DHT22;48506;48.202;16.274;2023-07-28T06:55:22;23.50;83.00
49124;DHT22;48506;48.202;16.274;2023-07-28T06:57:48;23.80;81.60
49124;DHT22;48506;48.202;16.274;2023-07-28T07:00:16;24.00;81.10
49124;DHT22;48506;48.202;16.274;2023-07-28T07:02:44;24.20;79.00
49124;DHT22;48506;48.202;16.274;2023-07-28T07:05:11;24.30;78.40
49124;DHT22;48506;48.202;16.274;2023-07-28T07:07:38;24.50;78.80
49124;DHT22;48506;48.202;16.274;2023-07-28T07:10:04;24.70;77.80
49124;DHT22;48506;48.202;16.274;2023-07-28T07:12:32;24.90;77.40
49124;DHT22;48506;48.202;16.274;2023-07-28T07:14:58;25.00;76.10
49124;DHT22;48506;48.202;16.274;2023-07-28T07:17:24;25.20;74.90
49124;DHT22;48506;48.202;16.274;2023-07-28T07:19:50;25.40;75.90
49124;DHT22;48506;48.202;16.274;2023-07-28T07:22:16;25.60;75.00
49124;DHT22;48506;48.202;16.274;2023-07-28T07:24:42;25.80;74.80
49124;DHT22;48506;48.202;16.274;2023-07-28T07:27:09;25.90;73.00
49124;DHT22;48506;48.202;16.274;2023-07-28T07:29:38;26.00;70.80
49124;DHT22;48506;48.202;16.274;2023-07-28T07:32:06;26.10;71.80
49124;DHT22;48506;48.202;16.274;2023-07-28T07:34:34;26.30;70.40
49124;DHT22;48506;48.202;16.274;2023-07-28T07:37:00;26.30;70.00
49124;DHT22;48506;48.202;16.274;2023-07-28T07:39:27;26.40;69.80
49124;DHT22;48506;48.202;16.274;2023-07-28T07:41:53;26.60;69.60
49124;DHT22;48506;48.202;16.274;2023-07-28T07:44:19;26.70;69.10
49124;DHT22;48506;48.202;16.274;2023-07-28T07:46:44;26.80;66.90
49124;DHT22;48506;48.202;16.274;2023-07-28T07:49:11;26.90;67.90
49124;DHT22;48506;48.202;16.274;2023-07-28T07:51:37;27.10;69.70
49124;DHT22;48506;48.202;16.274;2023-07-28T07:54:02;27.30;68.30
49124;DHT22;48506;48.202;16.274;2023-07-28T07:56:29;27.50;67.60
49124;DHT22;48506;48.202;16.274;2023-07-28T07:58:55;27.70;66.80
49124;DHT22;48506;48.202;16.274;2023-07-28T08:01:21;27.80;66.10
49124;DHT22;48506;48.202;16.274;2023-07-28T08:03:47;27.70;66.00
49124;DHT22;48506;48.202;16.274;2023-07-28T08:06:13;27.80;65.90
49124;DHT22;48506;48.202;16.274;2023-07-28T08:08:40;27.90;66.60
49124;DHT22;48506;48.202;16.274;2023-07-28T08:11:06;28.10;66.90
49124;DHT22;48506;48.202;16.274;2023-07-28T08:13:33;28.20;66.70
49124;DHT22;48506;48.202;16.274;2023-07-28T08:15:59;28.30;66.20
49124;DHT22;48506;48.202;16.274;2023-07-28T08:18:26;28.50;65.10
49124;DHT22;48506;48.202;16.274;2023-07-28T08:20:52;28.60;66.10
49124;DHT22;48506;48.202;16.274;2023-07-28T08:23:17;28.70;64.50
49124;DHT22;48506;48.202;16.274;2023-07-28T08:25:43;28.70;65.00
49124;DHT22;48506;48.202;16.274;2023-07-28T08:28:09;28.80;64.30
49124;DHT22;48506;48.202;16.274;2023-07-28T08:30:35;28.80;64.40
49124;DHT22;48506;48.202;16.274;2023-07-28T08:33:01;28.80;64.30
49124;DHT22;48506;48.202;16.274;2023-07-28T08:35:27;28.90;64.50
49124;DHT22;48506;48.202;16.274;2023-07-28T08:37:53;29.00;66.00
49124;DHT22;48506;48.202;16.274;2023-07-28T08:40:20;29.20;65.90
49124;DHT22;48506;48.202;16.274;2023-07-28T08:42:46;29.30;66.30
49124;DHT22;48506;48.202;16.274;2023-07-28T08:45:13;29.40;65.40
49124;DHT22;48506;48.202;16.274;2023-07-28T08:47:40;29.50;63.90
49124;DHT22;48506;48.202;16.274;2023-07-28T08:50:06;29.50;63.90
49124;DHT22;48506;48.202;16.274;2023-07-28T08:52:32;29.50;63.10
49124;DHT22;48506;48.202;16.274;2023-07-28T08:54:58;29.40;64.70
49124;DHT22;48506;48.202;16.274;2023-07-28T08:57:24;29.40;63.50
49124;DHT22;48506;48.202;16.274;2023-07-28T08:59:50;29.40;63.50
49124;DHT22;48506;48.202;16.274;2023-07-28T09:02:18;29.40;64.30
49124;DHT22;48506;48.202;16.274;2023-07-28T09:04:47;29.50;65.60
49124;DHT22;48506;48.202;16.274;2023-07-28T09:07:13;29.60;64.30
49124;DHT22;48506;48.202;16.274;2023-07-28T09:09:41;29.60;64.40
49124;DHT22;48506;48.202;16.274;2023-07-28T09:12:08;29.60;63.50
49124;DHT22;48506;48.202;16.274;2023-07-28T09:14:38;29.70;63.60
49124;DHT22;48506;48.202;16.274;2023-07-28T09:17:12;29.60;62.50
49124;DHT22;48506;48.202;16.274;2023-07-28T09:19:53;29.50;63.40
49124;DHT22;48506;48.202;16.274;2023-07-28T09:22:19;29.60;62.90
49124;DHT22;48506;48.202;16.274;2023-07-28T09:24:46;29.60;62.60
49124;DHT22;48506;48.202;16.274;2023-07-28T09:27:25;29.60;63.50
49124;DHT22;48506;48.202;16.274;2023-07-28T09:29:52;29.80;63.90
49124;DHT22;48506;48.202;16.274;2023-07-28T09:32:31;30.00;63.50
49124;DHT22;48506;48.202;16.274;2023-07-28T09:35:09;30.30;64.30
49124;DHT22;48506;48.202;16.274;2023-07-28T09:37:38;30.60;62.60
49124;DHT22;48506;48.202;16.274;2023-07-28T09:40:10;30.90;62.10
49124;DHT22;48506;48.202;16.274;2023-07-28T09:42:41;31.00;62.00
49124;DHT22;48506;48.202;16.274;2023-07-28T09:45:09;31.10;62.10
49124;DHT22;48506;48.202;16.274;2023-07-28T09:47:37;31.00;59.60
49124;DHT22;48506;48.202;16.274;2023-07-28T09:50:05;30.70;59.80
49124;DHT22;48506;48.202;16.274;2023-07-28T09:52:37;30.30;60.20
49124;DHT22;48506;48.202;16.274;2023-07-28T09:55:06;30.30;61.50
49124;DHT22;48506;48.202;16.274;2023-07-28T09:57:39;30.40;61.30
49124;DHT22;48506;48.202;16.274;2023-07-28T10:00:09;30.00;60.60
49124;DHT22;48506;48.202;16.274;2023-07-28T10:02:36;29.80;61.40
49124;DHT22;48506;48.202;16.274;2023-07-28T10:05:04;29.70;61.40
49124;DHT22;48506;48.202;16.274;2023-07-28T10:07:36;29.80;61.90
49124;DHT22;48506;48.202;16.274;2023-07-28T10:10:09;30.00;62.30
49124;DHT22;48506;48.202;16.274;2023-07-28T10:12:53;30.30;61.60
49124;DHT22;48506;48.202;16.274;2023-07-28T10:15:28;30.60;61.60
49124;DHT22;48506;48.202;16.274;2023-07-28T10:17:56;30.90;61.00
49124;DHT22;48506;48.202;16.274;2023-07-28T10:20:34;31.30;61.70
49124;DHT22;48506;48.202;16.274;2023-07-28T10:23:07;31.60;61.20
49124;DHT22;48506;48.202;16.274;2023-07-28T10:25:38;31.50;60.10
49124;DHT22;48506;48.202;16.274;2023-07-28T10:28:06;31.30;60.00
49124;DHT22;48506;48.202;16.274;2023-07-28T10:30:39;31.20;60.20
49124;DHT22;48506;48.202;16.274;2023-07-28T10:35:58;31.00;60.80
49124;DHT22;48506;48.202;16.274;2023-07-28T10:38:29;31.20;61.30
49124;DHT22;48506;48.202;16.274;2023-07-28T10:43:31;31.20;61.40
49124;DHT22;48506;48.202;16.274;2023-07-28T10:45:57;31.20;61.00
49124;DHT22;48506;48.202;16.274;2023-07-28T10:48:23;31.20;61.70
49124;DHT22;48506;48.202;16.274;2023-07-28T10:50:50;31.10;61.40
49124;DHT22;48506;48.202;16.274;2023-07-28T10:53:16;30.70;61.50
49124;DHT22;48506;48.202;16.274;2023-07-28T10:55:42;30.40;61.80
49124;DHT22;48506;48.202;16.274;2023-07-28T10:58:08;30.00;63.30
49124;DHT22;48506;48.202;16.274;2023-07-28T11:00:34;29.70;62.90
49124;DHT22;48506;48.202;16.274;2023-07-28T11:03:00;29.50;64.30
49124;DHT22;48506;48.202;16.274;2023-07-28T11:05:28;29.40;64.00
49124;DHT22;48506;48.202;16.274;2023-07-28T11:07:57;29.30;64.10
49124;DHT22;48506;48.202;16.274;2023-07-28T11:10:24;29.20;64.90
49124;DHT22;48506;48.202;16.274;2023-07-28T11:12:51;29.20;65.80
49124;DHT22;48506;48.202;16.274;2023-07-28T11:15:18;29.30;64.90
49124;DHT22;48506;48.202;16.274;2023-07-28T11:17:47;29.60;64.90
49124;DHT22;48506;48.202;16.274;2023-07-28T11:20:18;29.90;64.90
49124;DHT22;48506;48.202;16.274;2023-07-28T11:22:46;30.00;64.50
49124;DHT22;48506;48.202;16.274;2023-07-28T11:25:12;30.00;64.90
49124;DHT22;48506;48.202;16.274;2023-07-28T11:27:40;30.10;63.60
49124;DHT22;48506;48.202;16.274;2023-07-28T11:30:09;30.10;63.40
49124;DHT22;48506;48.202;16.274;2023-07-28T11:32:35;30.10;64.10
49124;DHT22;48506;48.202;16.274;2023-07-28T11:35:05;30.30;64.70
49124;DHT22;48506;48.202;16.274;2023-07-28T11:37:33;30.50;64.00
49124;DHT22;48506;48.202;16.274;2023-07-28T11:40:03;30.70;63.40
49124;DHT22;48506;48.202;16.274;2023-07-28T11:42:34;30.80;62.10
49124;DHT22;48506;48.202;16.274;2023-07-28T11:45:05;30.80;62.20
49124;DHT22;48506;48.202;16.274;2023-07-28T11:47:32;30.60;62.10
49124;DHT22;48506;48.202;16.274;2023-07-28T11:49:58;30.50;63.90
49124;DHT22;48506;48.202;16.274;2023-07-28T11:52:36;30.60;63.00
49124;DHT22;48506;48.202;16.274;2023-07-28T11:55:06;30.80;62.70
49124;DHT22;48506;48.202;16.274;2023-07-28T11:57:32;30.90;61.60
49124;DHT22;48506;48.202;16.274;2023-07-28T12:00:01;31.00;62.30
49124;DHT22;48506;48.202;16.274;2023-07-28T12:02:31;31.20;60.90
49124;DHT22;48506;48.202;16.274;2023-07-28T12:04:59;31.20;60.90
49124;DHT22;48506;48.202;16.274;2023-07-28T12:07:32;31.20;60.80
49124;DHT22;48506;48.202;16.274;2023-07-28T12:10:05;31.40;61.80
49124;DHT22;48506;48.202;16.274;2023-07-28T12:12:43;31.50;61.50
49124;DHT22;48506;48.202;16.274;2023-07-28T12:15:25;31.50;61.10
49124;DHT22;48506;48.202;16.274;2023-07-28T12:18:15;31.50;61.80
49124;DHT22;48506;48.202;16.274;2023-07-28T12:20:46;31.40;61.50
49124;DHT22;48506;48.202;16.274;2023-07-28T12:23:14;31.50;62.20
49124;DHT22;48506;48.202;16.274;2023-07-28T12:25:41;31.60;61.20
49124;DHT22;48506;48.202;16.274;2023-07-28T12:28:07;31.70;63.20
49124;DHT22;48506;48.202;16.274;2023-07-28T12:30:34;32.00;61.80
49124;DHT22;48506;48.202;16.274;2023-07-28T12:33:01;32.00;61.90
49124;DHT22;48506;48.202;16.274;2023-07-28T12:35:30;32.30;63.20
49124;DHT22;48506;48.202;16.274;2023-07-28T12:37:59;32.60;60.90
49124;DHT22;48506;48.202;16.274;2023-07-28T12:40:27;32.60;60.80
49124;DHT22;48506;48.202;16.274;2023-07-28T12:42:55;32.60;60.40
49124;DHT22;48506;48.202;16.274;2023-07-28T12:45:21;32.40;59.70
49124;DHT22;48506;48.202;16.274;2023-07-28T12:47:48;32.10;60.00
49124;DHT22;48506;48.202;16.274;2023-07-28T12:50:14;31.60;60.40
49124;DHT22;48506;48.202;16.274;2023-07-28T12:52:40;31.10;61.90
49124;DHT22;48506;48.202;16.274;2023-07-28T12:55:07;30.60;62.40
49124;DHT22;48506;48.202;16.274;2023-07-28T12:57:34;30.30;62.70
49124;DHT22;48506;48.202;16.274;2023-07-28T13:00:00;30.10;62.70
49124;DHT22;48506;48.202;16.274;2023-07-28T13:02:26;29.80;63.40
49124;DHT22;48506;48.202;16.274;2023-07-28T13:04:52;29.60;64.20
49124;DHT22;48506;48.202;16.274;2023-07-28T13:07:18;29.50;64.50
49124;DHT22;48506;48.202;16.274;2023-07-28T13:09:44;29.30;65.40
49124;DHT22;48506;48.202;16.274;2023-07-28T13:12:11;29.00;66.20
49124;DHT22;48506;48.202;16.274;2023-07-28T13:14:37;28.80;67.90
49124;DHT22;48506;48.202;16.274;2023-07-28T13:17:03;28.40;68.40
49124;DHT22;48506;48.202;16.274;2023-07-28T13:19:29;28.20;69.50
49124;DHT22;48506;48.202;16.274;2023-07-28T13:21:55;28.10;70.40
49124;DHT22;48506;48.202;16.274;2023-07-28T13:24:21;28.00;70.60
49124;DHT22;48506;48.202;16.274;2023-07-28T13:26:47;28.10;70.10
49124;DHT22;48506;48.202;16.274;2023-07-28T13:29:13;28.10;70.60
49124;DHT22;48506;48.202;16.274;2023-07-28T13:31:39;28.30;71.00
49124;DHT22;48506;48.202;16.274;2023-07-28T13:34:05;28.50;70.20
49124;DHT22;48506;48.202;16.274;2023-07-28T13:36:31;28.60;70.60
49124;DHT22;48506;48.202;16.274;2023-07-28T13:38:57;28.70;69.90
49124;DHT22;48506;48.202;16.274;2023-07-28T13:41:23;28.90;70.60
49124;DHT22;48506;48.202;16.274;2023-07-28T13:43:49;29.10;69.80
49124;DHT22;48506;48.202;16.274;2023-07-28T13:46:15;29.30;68.20
49124;DHT22;48506;48.202;16.274;2023-07-28T13:48:41;29.60;67.70
49124;DHT22;48506;48.202;16.274;2023-07-28T13:51:08;29.70;66.20
49124;DHT22;48506;48.202;16.274;2023-07-28T13:53:34;29.70;65.30
49124;DHT22;48506;48.202;16.274;2023-07-28T13:56:00;29.60;64.50
49124;DHT22;48506;48.202;16.274;2023-07-28T13:58:26;29.30;65.50
49124;DHT22;48506;48.202;16.274;2023-07-28T14:00:52;29.30;64.90
49124;DHT22;48506;48.202;16.274;2023-07-28T14:03:18;29.30;65.10
49124;DHT22;48506;48.202;16.274;2023-07-28T14:05:44;29.20;64.30
49124;DHT22;48506;48.202;16.274;2023-07-28T14:08:11;29.00;65.70
49124;DHT22;48506;48.202;16.274;2023-07-28T14:10:37;29.00;66.30
49124;DHT22;48506;48.202;16.274;2023-07-28T14:13:04;29.00;65.80
49124;DHT22;48506;48.202;16.274;2023-07-28T14:15:30;29.00;66.50
49124;DHT22;48506;48.202;16.274;2023-07-28T14:17:56;29.10;66.90
49124;DHT22;48506;48.202;16.274;2023-07-28T14:20:22;29.40;66.50
49124;DHT22;48506;48.202;16.274;2023-07-28T14:22:48;29.60;65.30
49124;DHT22;48506;48.202;16.274;2023-07-28T14:25:13;29.60;65.50
49124;DHT22;48506;48.202;16.274;2023-07-28T14:27:40;29.60;65.00
49124;DHT22;48506;48.202;16.274;2023-07-28T14:30:06;29.50;65.50
49124;DHT22;48506;48.202;16.274;2023-07-28T14:32:32;29.50;65.30
49124;DHT22;48506;48.202;16.274;2023-07-28T14:34:58;29.40;66.60
49124;DHT22;48506;48.202;16.274;2023-07-28T14:37:24;29.40;65.80
49124;DHT22;48506;48.202;16.274;2023-07-28T14:39:50;29.40;66.20
49124;DHT22;48506;48.202;16.274;2023-07-28T14:42:17;29.40;66.00
49124;DHT22;48506;48.202;16.274;2023-07-28T14:44:42;29.30;65.60
49124;DHT22;48506;48.202;16.274;2023-07-28T14:47:09;29.00;66.10
49124;DHT22;48506;48.202;16.274;2023-07-28T14:49:35;28.90;66.50
49124;DHT22;48506;48.202;16.274;2023-07-28T14:52:01;28.80;66.80
49124;DHT22;48506;48.202;16.274;2023-07-28T14:54:26;28.70;66.90
49124;DHT22;48506;48.202;16.274;2023-07-28T14:56:52;28.60;67.60
49124;DHT22;48506;48.202;16.274;2023-07-28T14:59:18;28.60;67.40
49124;DHT22;48506;48.202;16.274;2023-07-28T15:01:44;28.60;67.70
49124;DHT22;48506;48.202;16.274;2023-07-28T15:04:10;28.50;67.90
49124;DHT22;48506;48.202;16.274;2023-07-28T15:06:39;28.50;68.00
49124;DHT22;48506;48.202;16.274;2023-07-28T15:09:05;28.50;69.00
49124;DHT22;48506;48.202;16.274;2023-07-28T15:11:32;28.40;69.10
49124;DHT22;48506;48.202;16.274;2023-07-28T15:13:58;28.50;69.50
49124;DHT22;48506;48.202;16.274;2023-07-28T15:16:24;28.50;69.20
49124;DHT22;48506;48.202;16.274;2023-07-28T15:18:50;28.50;68.80
49124;DHT22;48506;48.202;16.274;2023-07-28T15:21:16;28.40;68.90
49124;DHT22;48506;48.202;16.274;2023-07-28T15:23:42;28.40;68.90
49124;DHT22;48506;48.202;16.274;2023-07-28T15:26:08;28.60;68.60
49124;DHT22;48506;48.202;16.274;2023-07-28T15:28:35;28.70;68.80
49124;DHT22;48506;48.202;16.274;2023-07-28T15:31:01;29.00;69.20